Latest Weather Observations for Norah Head

IDN60801

Issued at 6:33 pm EST Saturday 25 June 2016 (issued every 30 minutes, with the page automatically refreshed every 10 minutes)

About weather observations | Map of weather stations | Latest weather observations for NSW | Other Formats
Station Details ID: 061366 Name: NORAH HEAD AWS Lat: -33.28 Lon: 151.58 Height: 18.8 m
Data from the previous 72 hours. | See also: Recent months at Norah Head
Date/Time
EST
Temp
°C
App
Temp
°C
Dew
Point
°C
Rel
Hum
%
Delta-T
°C
Wind Press
QNH
hPa
Press
MSL
hPa
Rain since
9am
mm
Dir  Spd
km/h
Gust
km/h
Spd
kts
Gust
kts
25/06:30pm 10.0 6.6 2.1 58 3.3 W 9 13 5 7 1019.6 1019.6 0.0
25/06:00pm 10.6 7.1 1.4 53 3.8 W 9 13 5 7 1019.4 1019.4 0.0
25/05:30pm 10.9 7.0 1.2 51 4.0 W 11 13 6 7 1019.0 1019.0 0.0
25/05:00pm 10.9 7.0 0.9 50 4.1 WSW 11 13 6 7 1018.9 1018.9 0.0
25/04:30pm 11.4 7.8 0.5 47 4.5 WSW 9 11 5 6 1018.8 1018.8 0.0
25/04:00pm 11.9 7.9 0.4 45 4.7 WSW 11 17 6 9 1018.7 1018.7 0.0
25/03:30pm 12.3 8.6 -0.2 42 5.1 WSW 9 17 5 9 1018.4 1018.4 0.0
25/03:00pm 12.6 8.2 0.4 43 5.1 SW 13 22 7 12 1018.3 1018.3 0.0
25/02:30pm 12.9 8.6 1.0 44 5.0 SW 13 22 7 12 1018.1 1018.1 0.0
25/02:00pm 13.0 7.9 1.0 44 5.1 SW 17 28 9 15 1017.9 1017.9 0.0
25/01:30pm 13.2 9.3 0.9 43 5.2 SW 11 20 6 11 1017.9 1017.9 0.0
25/01:00pm 13.0 9.1 1.4 45 4.9 SW 11 24 6 13 1018.1 1018.1 0.0
25/12:30pm 12.2 7.4 0.0 43 5.0 SW 15 26 8 14 1018.2 1018.2 0.0
25/12:00pm 11.9 6.3 0.1 44 4.8 SW 19 28 10 15 1018.2 1018.2 0.0
25/11:30am 11.9 6.6 -0.3 43 5.0 SW 17 28 9 15 1018.4 1018.4 0.0
25/11:00am 11.6 6.7 -0.2 44 4.8 WSW 15 30 8 16 1018.6 1018.6 0.0
25/10:30am 11.0 5.3 -0.8 44 4.7 WSW 19 32 10 17 1018.6 1018.6 0.0
25/10:00am 10.9 6.0 -0.2 46 4.5 WSW 15 28 8 15 1018.6 1018.6 0.0
25/09:30am 10.1 5.2 -0.7 47 4.3 WSW 15 28 8 15 1018.5 1018.5 0.0
25/09:00am 9.5 5.8 0.1 52 3.8 W 9 20 5 11 1018.0 1018.0 0.0
25/08:30am 9.0 5.3 -0.3 52 3.7 W 9 20 5 11 1017.8 1017.8 0.0
25/08:00am 8.0 4.7 0.3 58 3.0 WNW 7 19 4 10 1017.5 1017.5 0.0
25/07:30am 6.9 3.6 0.1 62 2.6 WNW 7 13 4 7 1017.4 1017.4 0.0
25/07:00am 6.5 3.1 -0.5 61 2.7 WNW 7 13 4 7 1016.9 1016.9 0.0
25/06:30am 7.2 3.5 0.0 60 2.8 W 9 19 5 10 1016.5 1016.5 0.0
25/06:00am 7.3 4.0 0.1 60 2.8 WSW 7 15 4 8 1016.2 1016.2 0.0
25/05:30am 7.0 3.8 0.7 64 2.5 W 7 13 4 7 1015.6 1015.5 0.0
25/05:00am 7.5 3.5 0.3 60 2.8 W 11 19 6 10 1015.1 1015.0 0.0
25/04:30am 7.5 3.9 0.3 60 2.8 WNW 9 20 5 11 1014.5 1014.4 0.0
25/04:00am 7.7 4.1 0.4 60 2.9 WNW 9 15 5 8 1014.2 1014.1 0.0
25/03:30am 8.0 4.4 0.5 59 3.0 W 9 17 5 9 1014.1 1014.0 0.0
25/03:00am 8.3 4.7 0.3 57 3.2 W 9 20 5 11 1013.9 1013.8 0.0
25/02:30am 8.3 4.3 0.3 57 3.2 W 11 19 6 10 1013.3 1013.2 0.0
25/02:00am 8.5 4.5 0.5 57 3.2 W 11 20 6 11 1013.0 1012.9 0.0
25/01:30am 8.6 4.5 0.1 55 3.4 W 11 20 6 11 1012.8 1012.7 0.0
25/01:00am 8.7 4.2 -0.1 54 3.5 WNW 13 26 7 14 1012.1 1012.0 0.0
25/12:30am 8.8 3.9 -0.2 53 3.6 WNW 15 24 8 13 1011.9 1011.8 0.0
25/12:00am 8.9 4.1 -0.1 53 3.6 WNW 15 28 8 15 1011.6 1011.5 0.0
 
Date/Time
EST
Temp
°C
App
Temp
°C
Dew
Point
°C
Rel
Hum
%
Delta-T
°C
Wind Press
QNH
hPa
Press
MSL
hPa
Rain since
9am
mm
Dir  Spd
km/h
Gust
km/h
Spd
kts
Gust
kts
24/11:30pm 9.0 4.5 -0.1 53 3.6 WNW 13 30 7 16 1011.4 1011.3 0.0
24/11:00pm 9.3 4.5 0.0 52 3.7 WNW 15 26 8 14 1011.3 1011.2 0.0
24/10:30pm 9.3 4.1 0.2 53 3.6 W 17 32 9 17 1011.2 1011.1 0.0
24/10:00pm 9.3 4.6 0.7 55 3.5 W 15 33 8 18 1010.8 1010.7 0.0
24/09:30pm 9.3 4.6 1.2 57 3.3 W 15 30 8 16 1010.4 1010.3 0.0
24/09:00pm 9.5 4.6 1.7 58 3.3 WNW 17 33 9 18 1009.5 1009.4 0.0
24/08:30pm 9.5 4.9 1.7 58 3.2 WNW 15 32 8 17 1009.4 1009.3 0.0
24/08:00pm 9.5 5.4 2.1 60 3.1 WNW 13 24 7 13 1009.5 1009.4 0.0
24/07:30pm 9.8 5.3 1.9 58 3.3 W 15 37 8 20 1009.0 1009.0 0.0
24/07:00pm 9.9 5.4 2.3 59 3.2 WNW 15 30 8 16 1008.1 1008.1 0.0
24/06:30pm 9.9 5.5 2.7 61 3.1 WNW 15 28 8 15 1008.0 1008.0 0.0
24/06:00pm 10.1 6.2 3.4 63 2.9 WNW 13 28 7 15 1007.4 1007.4 0.0
24/05:30pm 10.7 4.9 2.5 57 3.5 WNW 22 48 12 26 1006.5 1006.5 0.0
24/05:00pm 12.0 7.3 3.3 55 3.9 WNW 17 35 9 19 1006.0 1006.0 0.0
24/04:30pm 13.6 8.1 1.9 45 5.1 WNW 20 48 11 26 1005.2 1005.2 0.0
24/04:00pm 14.0 10.3 2.6 46 5.1 WNW 11 24 6 13 1004.5 1004.5 0.0
24/03:30pm 14.6 10.1 2.2 43 5.5 W 15 28 8 15 1004.3 1004.3 0.0
24/03:00pm 15.1 9.5 0.9 38 6.1 W 20 35 11 19 1003.8 1003.8 0.0
24/02:30pm 16.3 12.1 1.6 37 6.5 W 13 35 7 19 1003.7 1003.7 0.0
24/02:00pm 16.4 12.1 1.3 36 6.7 W 13 30 7 16 1003.3 1003.3 0.0
24/01:30pm 16.9 12.7 3.9 42 6.1 WNW 15 41 8 22 1003.3 1003.3 0.0
24/01:00pm 16.8 12.5 5.1 46 5.6 NW 17 33 9 18 1003.1 1003.1 0.0
24/12:30pm 17.1 14.5 7.7 54 4.7 WNW 11 32 6 17 1003.5 1003.5 0.0
24/12:00pm 16.7 13.3 7.6 55 4.6 NW 15 30 8 16 1003.9 1003.9 0.0
24/11:30am 15.2 12.1 7.3 59 3.9 WNW 13 24 7 13 1004.2 1004.2 0.0
24/11:00am 15.9 12.3 6.9 55 4.4 WNW 15 48 8 26 1004.8 1004.8 0.0
24/10:30am 17.1 14.4 7.5 53 4.8 WNW 11 22 6 12 1004.7 1004.7 0.0
24/10:00am 16.9 14.2 7.5 54 4.7 WNW 11 28 6 15 1004.6 1004.6 0.0
24/09:30am 16.2 13.7 8.2 59 4.1 NW 11 26 6 14 1004.5 1004.5 0.0
24/09:00am 15.8 13.4 8.8 63 3.6 NW 11 20 6 11 1004.3 1004.3 0.0
24/08:30am 15.1 13.5 8.8 66 3.2 NW 7 17 4 9 1004.1 1004.1 0.0
24/08:00am 14.0 12.1 9.0 72 2.5 NW 9 17 5 9 1003.8 1003.8 0.0
24/07:30am 12.9 11.1 9.5 80 1.7 NW 9 15 5 8 1003.6 1003.6 0.0
24/07:00am 12.5 10.4 9.7 83 1.4 NW 11 15 6 8 1003.6 1003.6 0.0
24/06:30am 12.4 10.7 9.8 84 1.3 NW 9 17 5 9 1003.5 1003.5 0.0
24/06:00am 12.5 10.8 9.9 84 1.3 NW 9 15 5 8 1003.4 1003.4 0.0
24/05:30am 12.8 11.5 9.8 82 1.5 NW 7 13 4 7 1003.4 1003.4 0.0
24/05:00am 13.3 12.1 10.3 82 1.6 NW 7 13 4 7 1003.4 1003.4 0.0
24/04:30am 13.8 11.2 10.8 82 1.6 NNW 15 19 8 10 1003.3 1003.3 0.0
24/04:00am 13.8 11.2 10.8 82 1.6 NNW 15 20 8 11 1003.3 1003.3 0.0
24/03:30am 14.0 11.5 11.2 83 1.5 N 15 19 8 10 1003.8 1003.8 0.0
24/03:00am 14.2 11.3 11.0 81 1.7 NNW 17 22 9 12 1004.2 1004.2 0.0
24/02:30am 14.6 10.8 11.2 80 1.8 N 22 28 12 15 1004.1 1004.1 0.0
24/02:00am 14.8 11.4 11.2 79 1.9 N 20 24 11 13 1004.3 1004.3 0.0
24/01:30am 14.4 11.1 10.8 79 1.9 N 19 24 10 13 1004.8 1004.8 0.0
24/01:00am 13.8 10.7 10.4 80 1.8 NNW 17 24 9 13 1005.0 1005.0 0.0
24/12:30am 14.1 10.6 10.9 81 1.7 NNW 20 24 11 13 1005.2 1005.2 0.0
24/12:00am 14.4 9.8 11.2 81 1.7 N 26 33 14 18 1005.2 1005.2 0.0
 
Date/Time
EST
Temp
°C
App
Temp
°C
Dew
Point
°C
Rel
Hum
%
Delta-T
°C
Wind Press
QNH
hPa
Press
MSL
hPa
Rain since
9am
mm
Dir  Spd
km/h
Gust
km/h
Spd
kts
Gust
kts
23/11:30pm 14.6 9.7 11.2 80 1.8 N 28 35 15 19 1005.6 1005.6 0.0
23/11:00pm 14.4 9.9 10.2 76 2.2 NNW 24 30 13 16 1006.0 1006.0 0.0
23/10:30pm 14.7 9.5 10.1 74 2.4 N 28 35 15 19 1006.0 1006.0 0.0
23/10:00pm 15.0 9.0 10.2 73 2.5 N 32 39 17 21 1006.2 1006.2 0.0
23/09:30pm 14.8 9.4 9.6 71 2.7 N 28 33 15 18 1006.5 1006.5 0.0
23/09:00pm 14.9 10.2 9.1 68 3.0 N 24 30 13 16 1006.9 1006.9 0.0
23/08:30pm 15.0 11.2 9.1 68 3.0 N 19 24 10 13 1007.2 1007.2 0.0
23/08:00pm 15.2 11.4 8.9 66 3.2 N 19 24 10 13 1007.4 1007.4 0.0
23/07:30pm 15.3 11.8 8.8 65 3.3 N 17 19 9 10 1007.7 1007.7 0.0
23/07:00pm 15.3 10.9 8.8 65 3.3 N 22 26 12 14 1007.6 1007.6 0.0
23/06:30pm 15.3 10.3 9.4 68 3.0 N 26 30 14 16 1007.6 1007.6 0.0
23/06:00pm 15.3 11.5 9.2 67 3.1 N 19 22 10 12 1007.7 1007.7 0.0
23/05:30pm 15.4 11.4 8.9 65 3.3 NNW 20 24 11 13 1007.7 1007.7 0.0
23/05:00pm 15.3 10.9 9.0 66 3.2 NNW 22 28 12 15 1007.6 1007.6 0.0
23/04:30pm 15.3 11.4 8.8 65 3.3 NNW 19 24 10 13 1007.8 1007.8 0.0
23/04:00pm 15.6 12.3 8.1 61 3.8 NW 15 28 8 15 1007.9 1007.9 0.0
23/03:30pm 15.9 13.1 8.6 62 3.7 NNW 13 20 7 11 1008.0 1008.0 0.0
23/03:00pm 16.3 14.6 8.3 59 4.1 NW 7 17 4 9 1008.4 1008.4 0.0
23/02:30pm 17.3 14.8 8.2 55 4.6 NW 11 19 6 10 1008.5 1008.5 0.0
23/02:00pm 16.4 12.6 7.6 56 4.4 NW 17 32 9 17 1008.9 1008.9 0.0
23/01:30pm 16.4 13.2 6.8 53 4.7 WNW 13 26 7 14 1009.0 1009.0 0.0
23/01:00pm 16.4 12.7 6.5 52 4.9 WNW 15 30 8 16 1009.8 1009.7 0.0
23/12:30pm 16.1 13.3 6.8 54 4.6 WNW 11 24 6 13 1010.5 1010.4 0.0
23/12:00pm 15.5 11.7 6.0 53 4.6 NW 15 30 8 16 1011.3 1011.2 0.0
23/11:30am 16.2 12.0 5.8 50 5.0 WNW 17 32 9 17 1012.0 1011.9 0.0
23/11:00am 16.6 12.5 6.4 51 5.0 NW 17 24 9 13 1012.4 1012.3 0.0
23/10:30am 16.9 13.5 7.5 54 4.7 NNW 15 22 8 12 1012.8 1012.7 0.0
23/10:00am 16.2 12.9 7.9 58 4.2 NNW 15 24 8 13 1013.1 1013.0 0.0
23/09:30am 15.2 12.2 7.5 60 3.8 NW 13 22 7 12 1013.2 1013.1 0.0
23/09:00am 14.6 12.2 8.8 68 2.9 NNW 11 20 6 11 1012.9 1012.8 0.0
23/08:30am 12.7 10.0 7.4 70 2.6 NW 11 17 6 9 1013.1 1013.0 0.0
23/08:00am 10.9 8.9 7.2 78 1.8 NW 7 13 4 7 1013.2 1013.1 0.0
23/07:30am 9.6 7.4 6.0 78 1.7 NW 7 13 4 7 1013.2 1013.1 0.0
23/07:00am 9.6 7.4 6.1 79 1.6 WNW 7 13 4 7 1013.0 1012.9 0.0
23/06:30am 9.6 6.6 6.1 79 1.6 NW 11 17 6 9 1012.4 1012.3 0.0
23/06:00am 10.2 8.1 6.5 78 1.7 NW 7 11 4 6 1011.9 1011.8 0.0
23/05:30am 10.5 7.6 6.6 77 1.8 NW 11 15 6 8 1012.0 1011.9 0.0
23/05:00am 11.0 7.8 6.9 76 1.9 NNW 13 20 7 11 1012.0 1011.9 0.0
23/04:30am 10.6 7.6 6.0 73 2.1 NW 11 17 6 9 1012.2 1012.1 0.0
23/04:00am 10.4 8.1 5.6 72 2.2 NW 7 11 4 6 1012.3 1012.2 0.0
23/03:30am 10.4 7.9 4.5 67 2.6 NW 7 13 4 7 1012.4 1012.3 0.0
23/03:00am 11.3 8.6 5.6 68 2.6 NW 9 15 5 8 1012.8 1012.7 0.0
23/02:30am 11.2 8.8 5.1 66 2.8 NW 7 9 4 5 1012.8 1012.7 0.0
23/02:00am 11.1 8.6 5.0 66 2.8 WNW 7 11 4 6 1012.5 1012.4 0.0
23/01:30am 11.2 8.4 5.3 67 2.7 N 9 11 5 6 1012.6 1012.5 0.0
23/01:00am 11.2 8.9 4.7 64 2.9 NW 6 9 3 5 1012.7 1012.6 0.0
23/12:30am 11.8 9.5 4.8 62 3.2 WNW 6 13 3 7 1012.3 1012.2 0.0
23/12:00am 12.1 9.8 4.6 60 3.4 WNW 6 9 3 5 1012.3 1012.2 0.0
 
Date/Time
EST
Temp
°C
App
Temp
°C
Dew
Point
°C
Rel
Hum
%
Delta-T
°C
Wind Press
QNH
hPa
Press
MSL
hPa
Rain since
9am
mm
Dir  Spd
km/h
Gust
km/h
Spd
kts
Gust
kts
22/11:30pm 12.3 10.7 4.3 58 3.6 WSW 2 9 1 5 1012.5 1012.4 0.0
22/11:00pm 12.8 9.9 4.5 57 3.8 W 9 15 5 8 1012.4 1012.3 0.0
22/10:30pm 13.2 9.9 4.6 56 4.0 WNW 11 24 6 13 1012.0 1011.9 0.0
22/10:00pm 13.2 10.3 4.6 56 4.0 WNW 9 17 5 9 1012.0 1011.9 0.0
22/09:30pm 13.6 10.7 4.7 55 4.1 W 9 24 5 13 1011.9 1011.8 0.0
22/09:00pm 13.3 11.0 5.5 59 3.7 W 7 19 4 10 1011.6 1011.5 0.0
22/08:30pm 13.9 11.6 5.5 57 4.0 W 7 17 4 9 1011.6 1011.5 0.0
22/08:00pm 14.2 11.1 5.6 56 4.1 WNW 11 22 6 12 1011.0 1010.9 0.0
22/07:30pm 14.4 12.1 5.7 56 4.1 W 7 20 4 11 1010.3 1010.2 0.0
22/07:00pm 14.5 11.5 6.1 57 4.0 WNW 11 20 6 11 1010.1 1010.0 0.0

Other Formats:

Comma delimited format used in spreadsheet applications
http://www.bom.gov.au/fwo/IDN60801/IDN60801.95770.axf

JavaScript Object Notation format (JSON) in row-major order
http://www.bom.gov.au/fwo/IDN60801/IDN60801.95770.json